createdAt,value
2023-07-08T00:01:03.268Z,84.60
2023-07-08T00:03:51.355Z,85.00
2023-07-08T00:06:38.832Z,85.40
2023-07-08T00:09:26.457Z,85.80
2023-07-08T00:12:15.324Z,86.40
2023-07-08T00:15:03.136Z,86.80
2023-07-08T00:17:54.293Z,87.30
2023-07-08T00:20:48.165Z,87.80
2023-07-08T00:23:37.393Z,88.10
2023-07-08T00:26:29.690Z,89.00
2023-07-08T00:29:18.669Z,88.90
2023-07-08T00:32:15.179Z,89.30
2023-07-08T00:35:02.222Z,89.60
2023-07-08T00:37:49.310Z,89.80
2023-07-08T00:40:37.149Z,90.10
2023-07-08T00:43:32.954Z,90.20
2023-07-08T00:46:43.914Z,90.20
2023-07-08T00:49:39.696Z,90.40
2023-07-08T00:52:30.027Z,90.40
2023-07-08T00:55:20.537Z,90.40
2023-07-08T00:58:09.498Z,90.60
2023-07-08T01:01:00.027Z,90.70
2023-07-08T01:03:57.203Z,90.90
2023-07-08T01:06:54.141Z,91.10
2023-07-08T01:09:48.090Z,91.30
2023-07-08T01:12:41.941Z,91.70
2023-07-08T01:15:36.240Z,92.10
2023-07-08T01:18:26.251Z,92.40
2023-07-08T01:21:36.644Z,92.60
2023-07-08T01:24:26.352Z,92.80
2023-07-08T01:27:15.378Z,93.00
2023-07-08T01:30:04.281Z,93.10
2023-07-08T01:32:54.120Z,93.30
2023-07-08T01:35:44.546Z,93.40
2023-07-08T01:38:33.449Z,93.40
2023-07-08T01:41:22.700Z,93.60
2023-07-08T01:44:27.650Z,93.70
2023-07-08T01:47:22.519Z,94.00
2023-07-08T01:50:10.246Z,94.30
2023-07-08T01:53:07.479Z,94.40
2023-07-08T01:55:57.845Z,94.40
2023-07-08T01:58:49.192Z,94.70
2023-07-08T02:01:35.916Z,95.10
2023-07-08T02:04:26.018Z,95.40
2023-07-08T02:07:18.626Z,95.70
2023-07-08T02:10:06.410Z,95.90
2023-07-08T02:12:53.662Z,96.50
2023-07-08T02:15:45.058Z,96.80
2023-07-08T02:18:34.304Z,97.10
2023-07-08T02:21:21.838Z,97.10
2023-07-08T02:24:09.628Z,97.60
2023-07-08T02:27:01.405Z,98.00
2023-07-08T02:29:48.258Z,98.50
2023-07-08T02:32:40.378Z,99.40
2023-07-08T02:35:30.275Z,99.80
2023-07-08T02:38:18.931Z,99.90
2023-07-08T02:41:05.584Z,99.90
2023-07-08T02:43:52.960Z,99.90
2023-07-08T02:46:40.420Z,99.90
2023-07-08T02:49:33.983Z,99.90
2023-07-08T02:52:21.503Z,99.90
2023-07-08T02:55:10.371Z,99.90
2023-07-08T02:58:03.705Z,99.90
2023-07-08T03:00:56.038Z,99.90
2023-07-08T03:03:44.849Z,99.90
2023-07-08T03:06:34.484Z,99.90
2023-07-08T03:09:24.139Z,99.90
2023-07-08T03:12:13.525Z,99.90
2023-07-08T03:15:01.979Z,99.90
2023-07-08T03:17:49.230Z,99.90
2023-07-08T03:20:37.888Z,99.90
2023-07-08T03:23:28.983Z,99.90
2023-07-08T03:26:20.067Z,99.90
2023-07-08T03:29:15.544Z,99.90
2023-07-08T03:32:03.733Z,99.90
2023-07-08T03:34:53.661Z,99.90
2023-07-08T03:37:40.683Z,99.90
2023-07-08T03:40:28.782Z,99.90
2023-07-08T03:43:17.103Z,99.90
2023-07-08T03:46:04.472Z,99.90
2023-07-08T03:48:53.842Z,99.90
2023-07-08T03:51:48.516Z,99.90
2023-07-08T03:54:37.458Z,99.90
2023-07-08T03:57:26.822Z,99.90
2023-07-08T04:00:17.661Z,99.90
2023-07-08T04:03:10.091Z,99.90
2023-07-08T04:05:58.298Z,99.90
2023-07-08T04:08:45.660Z,99.90
2023-07-08T04:11:36.785Z,99.90
2023-07-08T04:14:25.979Z,99.90
2023-07-08T04:17:17.031Z,99.90
2023-07-08T04:20:05.379Z,99.90
2023-07-08T04:22:55.511Z,99.90
2023-07-08T04:25:43.130Z,99.90
2023-07-08T04:28:38.199Z,99.90
2023-07-08T04:31:28.937Z,99.90
2023-07-08T04:34:19.322Z,99.90
2023-07-08T04:37:10.969Z,99.90
2023-07-08T04:39:57.835Z,99.90
2023-07-08T04:42:46.548Z,99.90
2023-07-08T04:45:33.012Z,99.90
2023-07-08T04:48:23.609Z,99.90
2023-07-08T04:51:12.625Z,99.60
2023-07-08T04:54:07.292Z,98.20
2023-07-08T04:56:57.185Z,97.50
2023-07-08T04:59:45.012Z,96.80
2023-07-08T05:05:22.732Z,95.30
2023-07-08T05:08:10.029Z,95.40
2023-07-08T05:10:59.613Z,95.20
2023-07-08T05:13:47.769Z,94.60
2023-07-08T05:16:37.106Z,93.90
2023-07-08T05:22:14.816Z,92.20
2023-07-08T05:25:05.028Z,90.80
2023-07-08T05:30:43.243Z,90.30
2023-07-08T05:33:33.269Z,89.50
2023-07-08T05:36:21.339Z,86.80
2023-07-08T05:39:14.390Z,82.40
2023-07-08T05:42:02.025Z,81.10
2023-07-08T05:47:43.597Z,75.00
2023-07-08T05:53:27.578Z,66.80
2023-07-08T05:56:16.562Z,65.00
2023-07-08T05:59:06.496Z,61.60
2023-07-08T06:01:58.109Z,60.90
2023-07-08T06:04:51.333Z,59.90
2023-07-08T06:07:38.800Z,57.80
2023-07-08T06:10:27.326Z,56.70
2023-07-08T06:13:18.790Z,56.50
2023-07-08T06:16:08.083Z,55.70
2023-07-08T06:24:34.159Z,52.50
2023-07-08T06:27:22.884Z,52.40
2023-07-08T06:30:16.224Z,52.10
2023-07-08T06:33:09.433Z,51.20
2023-07-08T06:35:56.906Z,51.40
2023-07-08T06:38:43.458Z,51.90
2023-07-08T06:41:36.599Z,51.60
2023-07-08T06:44:23.965Z,51.30
2023-07-08T06:47:17.951Z,51.70
2023-07-08T06:50:08.268Z,52.40
2023-07-08T06:52:55.860Z,52.40
2023-07-08T06:55:47.210Z,50.40
2023-07-08T06:58:36.643Z,50.40
2023-07-08T07:04:17.514Z,48.90
2023-07-08T07:07:05.365Z,48.60
2023-07-08T07:09:59.357Z,49.70
2023-07-08T07:12:48.143Z,48.70
2023-07-08T07:18:26.367Z,50.40
2023-07-08T07:21:14.512Z,52.90
2023-07-08T07:24:03.109Z,52.20
2023-07-08T07:29:45.103Z,67.00
2023-07-08T07:32:39.005Z,72.40
2023-07-08T07:35:27.810Z,74.00
2023-07-08T07:38:18.981Z,75.00
2023-07-08T07:41:07.471Z,75.10
2023-07-08T07:43:55.461Z,74.90
2023-07-08T07:46:45.975Z,73.10
2023-07-08T07:49:33.323Z,71.70
2023-07-08T07:52:25.315Z,70.10
2023-07-08T07:55:14.621Z,70.90
2023-07-08T07:58:02.890Z,71.00
2023-07-08T08:00:53.620Z,72.40
2023-07-08T08:03:41.348Z,72.90
2023-07-08T08:06:28.955Z,73.00
2023-07-08T08:09:17.366Z,72.30
2023-07-08T08:12:06.760Z,73.00
2023-07-08T08:14:53.637Z,72.80
2023-07-08T08:17:41.055Z,52.80
2023-07-08T08:20:28.718Z,52.20
2023-07-08T08:23:16.262Z,52.00
2023-07-08T08:26:03.532Z,51.80
2023-07-08T08:28:52.154Z,50.50
2023-07-08T08:31:40.949Z,50.90
2023-07-08T08:34:28.354Z,51.10
2023-07-08T08:37:16.558Z,51.00
2023-07-08T08:40:03.553Z,51.10
2023-07-08T08:42:56.002Z,50.20
2023-07-08T08:45:53.814Z,51.50
2023-07-08T08:48:46.616Z,75.50
2023-07-08T08:51:36.029Z,73.20
2023-07-08T08:54:23.379Z,73.20
2023-07-08T08:57:32.692Z,74.10
2023-07-08T09:00:29.286Z,74.50
2023-07-08T09:03:20.807Z,77.60
2023-07-08T09:06:21.492Z,76.70
2023-07-08T09:09:20.813Z,77.00
2023-07-08T09:12:18.922Z,75.70
2023-07-08T09:15:15.375Z,75.90
2023-07-08T09:18:22.399Z,76.20
2023-07-08T09:21:22.608Z,50.40
2023-07-08T09:24:18.739Z,50.30
2023-07-08T09:27:06.751Z,51.00
2023-07-08T09:29:58.805Z,50.30
2023-07-08T09:32:48.018Z,50.40
2023-07-08T09:35:42.845Z,49.90
2023-07-08T09:38:36.387Z,50.30
2023-07-08T09:41:32.758Z,48.60
2023-07-08T09:44:27.876Z,48.30
2023-07-08T09:50:22.779Z,48.60
2023-07-08T09:53:15.956Z,48.40
2023-07-08T09:56:13.900Z,48.50
2023-07-08T09:59:01.399Z,47.90
2023-07-08T10:01:49.559Z,47.40
2023-07-08T10:04:37.060Z,46.50
2023-07-08T10:07:28.465Z,47.00
2023-07-08T10:10:19.861Z,46.40
2023-07-08T10:13:20.020Z,46.90
2023-07-08T10:16:18.571Z,47.00
2023-07-08T10:22:13.716Z,46.70
2023-07-08T10:25:14.714Z,48.10
2023-07-08T10:28:27.162Z,46.20
2023-07-08T10:31:24.236Z,45.70
2023-07-08T10:34:33.931Z,45.60
2023-07-08T10:37:29.112Z,45.90
2023-07-08T10:40:36.581Z,46.50
2023-07-08T10:43:41.249Z,46.80
2023-07-08T10:52:53.777Z,47.00
2023-07-08T10:55:49.591Z,47.20
2023-07-08T10:58:55.016Z,47.50
2023-07-08T11:01:51.912Z,46.70
2023-07-08T11:04:58.319Z,46.10
2023-07-08T11:07:56.586Z,46.20
2023-07-08T11:11:13.879Z,46.90
2023-07-08T11:14:17.428Z,47.10
2023-07-08T11:17:18.397Z,46.90
2023-07-08T11:20:19.095Z,47.00
2023-07-08T11:23:14.331Z,46.20
2023-07-08T11:26:27.189Z,46.40
2023-07-08T11:29:22.660Z,46.40
2023-07-08T11:32:17.025Z,47.20
2023-07-08T11:35:21.862Z,47.70
2023-07-08T11:38:14.273Z,49.00
2023-07-08T11:41:06.212Z,48.50
2023-07-08T11:44:00.174Z,47.00
2023-07-08T11:47:00.375Z,47.00
2023-07-08T11:49:52.412Z,47.20
2023-07-08T11:52:41.428Z,46.60
2023-07-08T11:55:38.666Z,46.70
2023-07-08T11:58:34.382Z,47.00
2023-07-08T12:01:31.280Z,46.80
2023-07-08T12:04:27.915Z,45.60
2023-07-08T12:07:25.393Z,45.90
2023-07-08T12:10:17.899Z,46.00
2023-07-08T12:13:08.360Z,47.40
2023-07-08T12:16:01.703Z,48.80
2023-07-08T12:18:53.133Z,46.90
2023-07-08T12:21:56.229Z,46.30
2023-07-08T12:24:45.099Z,47.00
2023-07-08T12:30:26.079Z,46.30
2023-07-08T12:33:16.067Z,47.10
2023-07-08T12:36:05.125Z,47.20
2023-07-08T12:38:54.391Z,46.50
2023-07-08T12:41:49.771Z,47.80
2023-07-08T12:44:38.738Z,47.00
2023-07-08T12:47:25.904Z,47.10
2023-07-08T12:50:16.188Z,46.90
2023-07-08T12:53:05.943Z,46.40
2023-07-08T12:56:10.318Z,47.30
2023-07-08T12:59:04.134Z,47.40
2023-07-08T13:01:58.723Z,47.30
2023-07-08T13:04:48.576Z,48.50
2023-07-08T13:07:40.510Z,48.70
2023-07-08T13:10:32.845Z,48.20
2023-07-08T13:13:29.001Z,47.70
2023-07-08T13:16:18.026Z,46.20
2023-07-08T13:19:06.478Z,47.40
2023-07-08T13:21:54.201Z,48.80
2023-07-08T13:24:42.100Z,48.60
2023-07-08T13:27:31.289Z,48.00
2023-07-08T13:30:24.953Z,47.50
2023-07-08T13:33:18.732Z,46.80
2023-07-08T13:36:07.736Z,46.90
2023-07-08T13:38:55.220Z,47.70
2023-07-08T13:41:46.641Z,47.50
2023-07-08T13:44:35.864Z,47.00
2023-07-08T13:47:36.340Z,47.70
2023-07-08T13:50:34.704Z,46.50
2023-07-08T13:53:26.183Z,47.10
2023-07-08T13:56:22.185Z,46.70
2023-07-08T13:59:15.795Z,46.90
2023-07-08T14:02:03.935Z,46.60
2023-07-08T14:04:55.728Z,46.50
2023-07-08T14:07:47.885Z,45.80
2023-07-08T14:10:34.913Z,45.90
2023-07-08T14:13:24.022Z,46.30
2023-07-08T14:16:30.127Z,45.70
2023-07-08T14:19:21.542Z,46.10
2023-07-08T14:22:25.838Z,46.50
2023-07-08T14:25:17.423Z,46.40
2023-07-08T14:28:07.101Z,45.80
2023-07-08T14:30:55.184Z,46.00
2023-07-08T14:33:42.304Z,45.80
2023-07-08T14:36:30.405Z,46.70
2023-07-08T14:39:21.019Z,46.20
2023-07-08T14:42:15.036Z,45.80
2023-07-08T14:45:02.916Z,46.10
2023-07-08T14:47:51.573Z,46.80
2023-07-08T14:50:39.763Z,47.40
2023-07-08T14:53:27.992Z,46.60
2023-07-08T14:56:24.499Z,46.80
2023-07-08T14:59:17.849Z,46.20
2023-07-08T15:02:22.238Z,46.60
2023-07-08T15:05:18.233Z,46.10
2023-07-08T15:08:06.504Z,46.30
2023-07-08T15:10:54.733Z,46.90
2023-07-08T15:13:46.771Z,46.70
2023-07-08T15:16:34.671Z,47.60
2023-07-08T15:19:23.812Z,48.00
2023-07-08T15:22:14.014Z,46.60
2023-07-08T15:25:03.309Z,46.40
2023-07-08T15:27:52.555Z,46.10
2023-07-08T15:30:42.054Z,46.40
2023-07-08T15:33:30.250Z,47.00
2023-07-08T15:36:18.912Z,46.60
2023-07-08T15:39:09.229Z,47.00
2023-07-08T15:42:01.724Z,47.40
2023-07-08T15:44:53.566Z,51.20
2023-07-08T15:47:45.605Z,54.70
2023-07-08T15:50:34.222Z,47.70
2023-07-08T15:53:22.748Z,47.00
2023-07-08T15:56:17.305Z,46.60
2023-07-08T15:59:10.978Z,46.60
2023-07-08T16:02:04.430Z,47.70
2023-07-08T16:04:53.840Z,46.40
2023-07-08T16:07:41.418Z,46.90
2023-07-08T16:10:34.368Z,47.10
2023-07-08T16:13:28.274Z,46.70
2023-07-08T16:16:19.603Z,46.10
2023-07-08T16:19:09.917Z,46.60
2023-07-08T16:22:00.410Z,46.50
2023-07-08T16:25:03.296Z,46.80
2023-07-08T16:27:54.429Z,46.70
2023-07-08T16:30:47.059Z,46.20
2023-07-08T16:33:39.557Z,46.70
2023-07-08T16:36:32.409Z,46.40
2023-07-08T16:39:25.668Z,45.80
2023-07-08T16:42:18.215Z,45.80
2023-07-08T16:45:15.849Z,46.30
2023-07-08T16:48:03.056Z,45.70
2023-07-08T16:50:50.009Z,47.00
2023-07-08T16:53:37.277Z,47.10
2023-07-08T16:56:25.919Z,46.40
2023-07-08T16:59:15.622Z,45.80
2023-07-08T17:02:06.303Z,45.50
2023-07-08T17:04:56.061Z,44.80
2023-07-08T17:07:43.502Z,45.00
2023-07-08T17:10:33.536Z,45.10
2023-07-08T17:13:22.246Z,44.90
2023-07-08T17:16:17.215Z,44.60
2023-07-08T17:19:05.691Z,44.50
2023-07-08T17:21:52.299Z,44.70
2023-07-08T17:24:40.033Z,45.30
2023-07-08T17:27:31.752Z,44.70
2023-07-08T17:30:25.354Z,44.60
2023-07-08T17:33:15.997Z,44.20
2023-07-08T17:36:12.190Z,44.40
2023-07-08T17:39:04.472Z,44.90
2023-07-08T17:41:55.209Z,44.60
2023-07-08T17:44:46.096Z,45.70
2023-07-08T17:47:34.776Z,44.70
2023-07-08T17:50:25.196Z,45.00
2023-07-08T17:53:17.117Z,45.50
2023-07-08T17:56:09.220Z,45.10
2023-07-08T17:59:01.773Z,45.00
2023-07-08T18:01:52.440Z,45.30
2023-07-08T18:04:40.830Z,45.80
2023-07-08T18:07:29.687Z,45.30
2023-07-08T18:10:21.611Z,45.60
2023-07-08T18:13:20.784Z,45.00
2023-07-08T18:16:15.527Z,45.30
2023-07-08T18:19:06.962Z,45.50
2023-07-08T18:22:11.700Z,45.80
2023-07-08T18:25:02.371Z,46.00
2023-07-08T18:27:51.265Z,46.50
2023-07-08T18:30:39.430Z,46.30
2023-07-08T18:33:28.504Z,47.10
2023-07-08T18:36:18.708Z,47.20
2023-07-08T18:39:08.812Z,47.00
2023-07-08T18:41:57.032Z,47.10
2023-07-08T18:44:45.356Z,47.30
2023-07-08T18:47:38.034Z,47.40
2023-07-08T18:50:26.066Z,47.50
2023-07-08T18:53:16.609Z,47.90
2023-07-08T18:56:06.581Z,48.00
2023-07-08T18:58:54.275Z,48.40
2023-07-08T19:01:45.338Z,48.50
2023-07-08T19:04:39.639Z,48.80
2023-07-08T19:07:30.861Z,49.00
2023-07-08T19:10:20.986Z,49.00
2023-07-08T19:16:15.441Z,49.10
2023-07-08T19:19:04.000Z,49.70
2023-07-08T19:21:52.861Z,49.70
2023-07-08T19:24:39.513Z,49.60
2023-07-08T19:27:28.552Z,50.00
2023-07-08T19:30:19.498Z,50.30
2023-07-08T19:33:09.338Z,50.40
2023-07-08T19:36:01.357Z,50.70
2023-07-08T19:38:51.066Z,50.80
2023-07-08T19:41:39.327Z,51.10
2023-07-08T19:44:30.127Z,51.20
2023-07-08T19:47:19.267Z,51.60
2023-07-08T19:50:11.744Z,51.90
2023-07-08T19:53:01.266Z,52.00
2023-07-08T19:55:48.555Z,52.30
2023-07-08T19:58:35.820Z,52.90
2023-07-08T20:01:24.143Z,53.00
2023-07-08T20:04:18.586Z,53.20
2023-07-08T20:07:10.828Z,53.20
2023-07-08T20:09:58.337Z,54.10
2023-07-08T20:12:52.566Z,53.70
2023-07-08T20:15:54.479Z,53.90
2023-07-08T20:18:46.795Z,53.90
2023-07-08T20:21:53.836Z,54.20
2023-07-08T20:24:41.340Z,54.50
2023-07-08T20:27:31.772Z,54.80
2023-07-08T20:30:23.029Z,54.90
2023-07-08T20:33:14.865Z,55.10
2023-07-08T20:36:06.873Z,55.20
2023-07-08T20:39:00.787Z,55.70
2023-07-08T20:42:00.276Z,55.80
2023-07-08T20:44:47.694Z,56.00
2023-07-08T20:47:35.128Z,56.20
2023-07-08T20:50:24.702Z,56.20
2023-07-08T20:53:15.549Z,56.40
2023-07-08T20:56:05.954Z,56.60
2023-07-08T20:58:57.139Z,56.80
2023-07-08T21:01:46.128Z,57.00
2023-07-08T21:04:35.799Z,56.90
2023-07-08T21:07:23.139Z,57.10
2023-07-08T21:10:20.117Z,57.30
2023-07-08T21:13:11.267Z,57.60
2023-07-08T21:15:59.895Z,57.70
2023-07-08T21:18:48.674Z,58.00
2023-07-08T21:21:36.357Z,58.40
2023-07-08T21:24:31.073Z,58.40
2023-07-08T21:27:26.135Z,58.90
2023-07-08T21:30:21.584Z,59.30
2023-07-08T21:33:11.250Z,59.60
2023-07-08T21:36:01.682Z,59.80
2023-07-08T21:38:49.231Z,59.90
2023-07-08T21:41:36.521Z,60.10
2023-07-08T21:44:23.795Z,60.40
2023-07-08T21:47:11.925Z,60.70
2023-07-08T21:49:59.280Z,60.80
2023-07-08T21:52:48.346Z,60.90
2023-07-08T21:55:55.050Z,61.50
2023-07-08T21:58:42.913Z,61.60
2023-07-08T22:01:37.032Z,61.80
2023-07-08T22:04:26.499Z,61.80
2023-07-08T22:07:24.205Z,62.30
2023-07-08T22:10:20.067Z,62.60
2023-07-08T22:13:07.567Z,62.80
2023-07-08T22:15:56.584Z,63.20
2023-07-08T22:18:46.004Z,63.60
2023-07-08T22:21:40.611Z,63.80
2023-07-08T22:24:37.115Z,63.90
2023-07-08T22:27:28.398Z,64.00
2023-07-08T22:30:18.292Z,64.00
2023-07-08T22:33:10.845Z,64.20
2023-07-08T22:35:59.066Z,64.20
2023-07-08T22:39:03.868Z,64.50
2023-07-08T22:41:55.896Z,64.60
2023-07-08T22:44:46.149Z,65.00
2023-07-08T22:47:39.901Z,65.00
2023-07-08T22:50:31.333Z,65.20
2023-07-08T22:53:22.478Z,65.50
2023-07-08T22:56:18.633Z,65.90
2023-07-08T22:59:05.888Z,66.10
2023-07-08T23:01:55.536Z,66.30
2023-07-08T23:04:42.643Z,66.30
2023-07-08T23:07:29.909Z,66.50
2023-07-08T23:10:19.237Z,67.50
2023-07-08T23:13:18.003Z,67.00
2023-07-08T23:16:15.079Z,67.30
2023-07-08T23:19:03.393Z,67.50
2023-07-08T23:21:52.141Z,67.30
2023-07-08T23:24:39.492Z,67.70
2023-07-08T23:27:27.288Z,68.00
2023-07-08T23:30:20.666Z,68.20
2023-07-08T23:33:08.308Z,68.30
2023-07-08T23:35:58.038Z,68.40
2023-07-08T23:38:50.429Z,68.50
2023-07-08T23:41:51.836Z,68.50
2023-07-08T23:44:39.296Z,68.80
2023-07-08T23:47:29.156Z,68.80
2023-07-08T23:50:21.978Z,69.30
2023-07-08T23:53:11.457Z,69.80
2023-07-08T23:55:59.569Z,69.80
2023-07-08T23:58:47.328Z,70.20
